地図

経路データ

SID SEASON NUMBER BASIN SUBBASIN NAME ISO_TIME NATURE LAT LON WMO_WIND WMO_PRES WMO_AGENCY TRACK_TYPE DIST2LAND LANDFALL IFLAG USA_AGENCY USA_ATCF_ID USA_LAT USA_LON USA_RECORD USA_STATUS USA_WIND USA_PRES USA_SSHS USA_R34_NE USA_R34_SE USA_R34_SW USA_R34_NW USA_R50_NE USA_R50_SE USA_R50_SW USA_R50_NW USA_R64_NE USA_R64_SE USA_R64_SW USA_R64_NW USA_POCI USA_ROCI USA_RMW USA_EYE TOKYO_LAT TOKYO_LON TOKYO_GRADE TOKYO_WIND TOKYO_PRES TOKYO_R50_DIR TOKYO_R50_LONG TOKYO_R50_SHORT TOKYO_R30_DIR TOKYO_R30_LONG TOKYO_R30_SHORT TOKYO_LAND CMA_LAT CMA_LON CMA_CAT CMA_WIND CMA_PRES HKO_LAT HKO_LON HKO_CAT HKO_WIND HKO_PRES NEWDELHI_LAT NEWDELHI_LON NEWDELHI_GRADE NEWDELHI_WIND NEWDELHI_PRES NEWDELHI_CI NEWDELHI_DP NEWDELHI_POCI REUNION_LAT REUNION_LON REUNION_TYPE REUNION_WIND REUNION_PRES REUNION_TNUM REUNION_CI REUNION_RMW REUNION_R34_NE REUNION_R34_SE REUNION_R34_SW REUNION_R34_NW REUNION_R50_NE REUNION_R50_SE REUNION_R50_SW REUNION_R50_NW REUNION_R64_NE REUNION_R64_SE REUNION_R64_SW REUNION_R64_NW BOM_LAT BOM_LON BOM_TYPE BOM_WIND BOM_PRES BOM_TNUM BOM_CI BOM_RMW BOM_R34_NE BOM_R34_SE BOM_R34_SW BOM_R34_NW BOM_R50_NE BOM_R50_SE BOM_R50_SW BOM_R50_NW BOM_R64_NE BOM_R64_SE BOM_R64_SW BOM_R64_NW BOM_ROCI BOM_POCI BOM_EYE BOM_POS_METHOD BOM_PRES_METHOD NADI_LAT NADI_LON NADI_CAT NADI_WIND NADI_PRES WELLINGTON_LAT WELLINGTON_LON WELLINGTON_WIND WELLINGTON_PRES DS824_LAT DS824_LON DS824_STAGE DS824_WIND DS824_PRES TD9636_LAT TD9636_LON TD9636_STAGE TD9636_WIND TD9636_PRES TD9635_LAT TD9635_LON TD9635_WIND TD9635_PRES TD9635_ROCI NEUMANN_LAT NEUMANN_LON NEUMANN_CLASS NEUMANN_WIND NEUMANN_PRES MLC_LAT MLC_LON MLC_CLASS MLC_WIND MLC_PRES USA_GUST BOM_GUST BOM_GUST_PER REUNION_GUST REUNION_GUST_PER USA_SEAHGT USA_SEARAD_NE USA_SEARAD_SE USA_SEARAD_SW USA_SEARAD_NW STORM_SPEED STORM_DIR
1891032S12435 1891 2 SI MM NOT_NAMED 1891-01-31 18:00:00 NR -11.6000 74.8000 main 2059 2016 __________O___ -1 -11.6000 74.8000 7 8 260
1891032S12435 1891 2 SI MM NOT_NAMED 1891-01-31 21:00:00 NR -11.6735 74.3846 main 2016 1978 __________P___ -1 -11.6735 74.3846 7 9 260
1891032S12435 1891 2 SI MM NOT_NAMED 1891-02-01 00:00:00 NR -11.7475 73.9452 main 1969 1926 __________P___ -1 -11.7475 73.9452 7 9 261
1891032S12435 1891 2 SI MM NOT_NAMED 1891-02-01 03:00:00 NR -11.8227 73.4583 main 1926 1864 __________P___ -1 -11.8227 73.4583 7 10 262
1891032S12435 1891 2 SI MM NOT_NAMED 1891-02-01 06:00:00 NR -11.9000 72.9000 main 1864 1803 __________O___ -1 -11.9000 72.9000 7 12 262
1891032S12435 1891 2 SI MM NOT_NAMED 1891-02-01 09:00:00 NR -11.9807 72.2546 main 1803 1732 __________P___ -1 -11.9807 72.2546 7 13 263
1891032S12435 1891 2 SI MM NOT_NAMED 1891-02-01 12:00:00 NR -12.0700 71.5394 main 1723 1654 __________P___ -1 -12.0700 71.5394 7 15 262
1891032S12435 1891 2 SI MM NOT_NAMED 1891-02-01 15:00:00 NR -12.1743 70.7795 main 1654 1576 __________P___ -1 -12.1743 70.7795 7 15 261
1891032S12435 1891 2 SI MM NOT_NAMED 1891-02-01 18:00:00 NR -12.3000 70.0000 main 1576 1492 __________O___ -1 -12.3000 70.0000 7 16 259
1891032S12435 1891 2 SI MM NOT_NAMED 1891-02-01 21:00:00 NR -12.4701 69.1913 main 1492 1416 __________P___ -1 -12.4701 69.1913 7 16 257
1891032S12435 1891 2 SI MM NOT_NAMED 1891-02-02 00:00:00 NR -12.6582 68.3760 main 1409 1334 __________P___ -1 -12.6582 68.3760 7 16 257
1891032S12435 1891 2 SI MM NOT_NAMED 1891-02-02 03:00:00 NR -12.8421 67.5975 main 1334 1261 __________P___ -1 -12.8421 67.5975 7 15 257
1891032S12435 1891 2 SI MM NOT_NAMED 1891-02-02 06:00:00 NR -13.0000 66.9000 main 1261 1213 __________O___ -1 -13.0000 66.9000 7 13 258
1891032S12435 1891 2 SI MM NOT_NAMED 1891-02-02 09:00:00 NR -13.0985 66.3301 main 1205 1165 __________P___ -1 -13.0985 66.3301 7 10 261
1891032S12435 1891 2 SI MM NOT_NAMED 1891-02-02 12:00:00 NR -13.1711 65.8444 main 1157 1126 __________P___ -1 -13.1711 65.8444 7 9 261
1891032S12435 1891 2 SI MM NOT_NAMED 1891-02-02 15:00:00 NR -13.2332 65.4115 main 1126 1087 __________P___ -1 -13.2332 65.4115 7 8 261
1891032S12435 1891 2 SI MM NOT_NAMED 1891-02-02 18:00:00 NR -13.3000 65.0000 main 1087 1049 __________O___ -1 -13.3000 65.0000 7 8 260
1891032S12435 1891 2 SI MM NOT_NAMED 1891-02-02 21:00:00 NR -13.3843 64.5605 main 1049 1011 __________P___ -1 -13.3843 64.5605 7 9 258
1891032S12435 1891 2 SI MM NOT_NAMED 1891-02-03 00:00:00 NR -13.4771 64.1348 main 1004 967 __________P___ -1 -13.4771 64.1348 7 8 257
1891032S12435 1891 2 SI MM NOT_NAMED 1891-02-03 03:00:00 NR -13.5812 63.7167 main 967 931 __________P___ -1 -13.5812 63.7167 7 8 255
1891032S12435 1891 2 SI MM NOT_NAMED 1891-02-03 06:00:00 NR -13.7000 63.3000 main 931 895 __________O___ -1 -13.7000 63.3000 7 9 253
1891032S12435 1891 2 SI MM NOT_NAMED 1891-02-03 09:00:00 NR -13.8395 62.8710 main 895 852 __________P___ -1 -13.8395 62.8710 7 9 251
1891032S12435 1891 2 SI MM NOT_NAMED 1891-02-03 12:00:00 NR -13.9923 62.4426 main 845 812 __________P___ -1 -13.9923 62.4426 7 9 250
1891032S12435 1891 2 SI MM NOT_NAMED 1891-02-03 15:00:00 NR -14.1489 62.0178 main 812 769 __________P___ -1 -14.1489 62.0178 7 9 249
1891032S12435 1891 2 SI MM NOT_NAMED 1891-02-03 18:00:00 NR -14.3000 61.6000 main 769 743 __________O___ -1 -14.3000 61.6000 7 8 251
1891032S12435 1891 2 SI MM NOT_NAMED 1891-02-03 21:00:00 NR -14.4027 61.2486 main 738 712 __________P___ -1 -14.4027 61.2486 7 7 253
1891032S12435 1891 2 SI MM NOT_NAMED 1891-02-04 00:00:00 NR -14.5033 60.8957 main 712 683 __________P___ -1 -14.5033 60.8957 7 8 253
1891032S12435 1891 2 SI MM NOT_NAMED 1891-02-04 03:00:00 NR -14.6273 60.4951 main 683 641 __________P___ -1 -14.6273 60.4951 7 9 251
1891032S12435 1891 2 SI MM NOT_NAMED 1891-02-04 06:00:00 NR -14.8000 60.0000 main 641 595 __________O___ -1 -14.8000 60.0000 7 12 250
1891032S12435 1891 2 SI MM NOT_NAMED 1891-02-04 09:00:00 NR -15.0512 59.3070 main 584 545 __________P___ -1 -15.0512 59.3070 7 15 249
1891032S12435 1891 2 SI MM NOT_NAMED 1891-02-04 12:00:00 NR -15.3498 58.5239 main 543 492 __________P___ -1 -15.3498 58.5239 7 16 248
1891032S12435 1891 2 SI MM NOT_NAMED 1891-02-04 15:00:00 NR -15.6731 57.7287 main 492 460 __________P___ -1 -15.6731 57.7287 7 16 246
1891032S12435 1891 2 SI MM NOT_NAMED 1891-02-04 18:00:00 NR -16.0000 57.0000 main 461 438 __________O___ -1 -16.0000 57.0000 7 14 244
1891032S12435 1891 2 SI MM NOT_NAMED 1891-02-04 21:00:00 NR -16.2743 56.4406 main 440 429 __________P___ -1 -16.2743 56.4406 7 11 241
1891032S12435 1891 2 SI MM NOT_NAMED 1891-02-05 00:00:00 NR -16.5533 55.9582 main 422 415 __________P___ -1 -16.5533 55.9582 7 11 237
1891032S12435 1891 2 SI MM NOT_NAMED 1891-02-05 03:00:00 NR -16.8558 55.5218 main 415 407 __________P___ -1 -16.8558 55.5218 7 10 232
1891032S12435 1891 2 SI MM NOT_NAMED 1891-02-05 06:00:00 NR -17.2000 55.1000 main 411 385 __________O___ -1 -17.2000 55.1000 7 12 229
1891032S12435 1891 2 SI MM NOT_NAMED 1891-02-05 09:00:00 NR -17.6110 54.6108 main 387 354 __________P___ -1 -17.6110 54.6108 7 13 227
1891032S12435 1891 2 SI MM NOT_NAMED 1891-02-05 12:00:00 NR -18.0627 54.1332 main 347 320 __________P___ -1 -18.0627 54.1332 7 13 224
1891032S12435 1891 2 SI MM NOT_NAMED 1891-02-05 15:00:00 NR -18.5330 53.6889 main 325 306 __________P___ -1 -18.5330 53.6889 7 12 220
1891032S12435 1891 2 SI MM NOT_NAMED 1891-02-05 18:00:00 NR -19.0000 53.3000 main 306 297 __________O___ -1 -19.0000 53.3000 7 11 218
1891032S12435 1891 2 SI MM NOT_NAMED 1891-02-05 21:00:00 NR -19.4358 52.9555 main 298 292 __________P___ -1 -19.4358 52.9555 7 11 214
1891032S12435 1891 2 SI MM NOT_NAMED 1891-02-06 00:00:00 NR -19.8645 52.6722 main 292 292 __________P___ -1 -19.8645 52.6722 7 10 209
1891032S12435 1891 2 SI MM NOT_NAMED 1891-02-06 03:00:00 NR -20.2860 52.4527 main 294 294 __________P___ -1 -20.2860 52.4527 7 9 203
1891032S12435 1891 2 SI MM NOT_NAMED 1891-02-06 06:00:00 NR -20.7000 52.3000 main 304 301 __________O___ -1 -20.7000 52.3000 7 9 196
1891032S12435 1891 2 SI MM NOT_NAMED 1891-02-06 09:00:00 NR -21.0988 52.2015 main 311 311 __________P___ -1 -21.0988 52.2015 7 8 189
1891032S12435 1891 2 SI MM NOT_NAMED 1891-02-06 12:00:00 NR -21.4922 52.1666 main 313 313 __________P___ -1 -21.4922 52.1666 7 8 0
1891032S12435 1891 2 SI MM NOT_NAMED 1891-02-06 15:00:00 NR -21.8895 52.1735 main 322 322 __________P___ -1 -21.8895 52.1735 7 8 177
1891032S12435 1891 2 SI MM NOT_NAMED 1891-02-06 18:00:00 NR -22.3000 52.2000 main 337 337 __________O___ -1 -22.3000 52.2000 7 9 178
1891032S12435 1891 2 SI MM NOT_NAMED 1891-02-06 21:00:00 NR -22.7477 52.1906 main 355 355 __________P___ -1 -22.7477 52.1906 7 9 180
1891032S12435 1891 2 SI MM NOT_NAMED 1891-02-07 00:00:00 NR -23.2074 52.1980 main 383 383 __________P___ -1 -23.2074 52.1980 7 9 177
1891032S12435 1891 2 SI MM NOT_NAMED 1891-02-07 03:00:00 NR -23.6634 52.2313 main 416 415 __________P___ -1 -23.6634 52.2313 7 9 174
1891032S12435 1891 2 SI MM NOT_NAMED 1891-02-07 06:00:00 NR -24.1000 52.3000 main 438 438 __________O___ -1 -24.1000 52.3000 7 9 169
1891032S12435 1891 2 SI MM NOT_NAMED 1891-02-07 09:00:00 NR -24.5088 52.4177 main 464 464 __________P___ -1 -24.5088 52.4177 7 8 163
1891032S12435 1891 2 SI MM NOT_NAMED 1891-02-07 12:00:00 NR -24.8951 52.5695 main 487 487 __________P___ -1 -24.8951 52.5695 7 8 159
1891032S12435 1891 2 SI MM NOT_NAMED 1891-02-07 15:00:00 NR -25.2588 52.7365 main 519 514 __________P___ -1 -25.2588 52.7365 7 8 157
1891032S12435 1891 2 SI MM NOT_NAMED 1891-02-07 18:00:00 NR -25.6000 52.9000 main 539 539 __________O___ -1 -25.6000 52.9000 7 7 158
1891032S12435 1891 2 SI MM NOT_NAMED 1891-02-07 21:00:00 NR -25.9012 53.0288 main 564 564 __________P___ -1 -25.9012 53.0288 7 6 159
1891032S12435 1891 2 SI MM NOT_NAMED 1891-02-08 00:00:00 NR -26.1849 53.1509 main 587 587 __________P___ -1 -26.1849 53.1509 7 6 159
1891032S12435 1891 2 SI MM NOT_NAMED 1891-02-08 03:00:00 NR -26.4762 53.2726 main 615 615 __________P___ -1 -26.4762 53.2726 7 7 160
1891032S12435 1891 2 SI MM NOT_NAMED 1891-02-08 06:00:00 NR -26.8000 53.4000 main 643 643 __________O___ -1 -26.8000 53.4000 7 8 162
1891032S12435 1891 2 SI MM NOT_NAMED 1891-02-08 09:00:00 NR -27.1890 53.5349 main 682 679 __________P___ -1 -27.1890 53.5349 7 9 163
1891032S12435 1891 2 SI MM NOT_NAMED 1891-02-08 12:00:00 NR -27.6124 53.6779 main 718 718 __________P___ -1 -27.6124 53.6779 7 9 163
1891032S12435 1891 2 SI MM NOT_NAMED 1891-02-08 15:00:00 NR -28.0546 53.8320 main 750 750 __________P___ -1 -28.0546 53.8320 7 9 162
1891032S12435 1891 2 SI MM NOT_NAMED 1891-02-08 18:00:00 NR -28.5000 54.0000 main 788 788 __________O___ -1 -28.5000 54.0000 7 9 161
1891032S12435 1891 2 SI MM NOT_NAMED 1891-02-08 21:00:00 NR -28.9361 54.1839 main 826 826 __________P___ -1 -28.9361 54.1839 7 9 159
1891032S12435 1891 2 SI MM NOT_NAMED 1891-02-09 00:00:00 NR -29.3628 54.3811 main 872 872 __________P___ -1 -29.3628 54.3811 7 9 157
1891032S12435 1891 2 SI MM NOT_NAMED 1891-02-09 03:00:00 NR -29.7831 54.5877 main 913 913 __________P___ -1 -29.7831 54.5877 7 9 157
1891032S12435 1891 2 SI MM NOT_NAMED 1891-02-09 06:00:00 NR -30.2000 54.8000 main 954 __________O___ -1 -30.2000 54.8000 7 9 156

IBTrACS Databaseについて

本データベースは、米国NOAAが公開する1842年以降の世界の熱帯低気圧のベストトラックデータアーカイブInternational Best Track Archive for Climate Stewardship (IBTrACS)を、ウェブで閲覧しやすい形式に変換したものです。

最終更新日:2021-10-27